Time;durP1;ratioP1;P1;durP2;ratioP2;P2;SDS_P1;SDS_P2;PMS_P1;PMS_P2;Temp;Humidity;BMP_temperature;BMP_pressure;BME280_temperature;BME280_humidity;BME280_pressure;Samples;Min_cycle;Max_cycle;Signal;HPM_P1;HPM_P2
2022/08/17 00:00:08;;;;;;;;;;;;;;;;;;2115938;28;20288;-45
2022/08/17 00:01:08;;;;;;;;;;;;;;;;;;2115910;28;19970;-45
2022/08/17 00:02:09;;;;;;;;;;;;;;;;;;2116167;28;19993;-46
2022/08/17 00:03:26;;;;;;;;;;;;;;;;;;2115816;28;20396;-45
2022/08/17 00:04:27;;;;;;;;;;;;;;;;;;2116147;28;20036;-46
2022/08/17 00:05:27;;;;;;;;;;;;;;;;;;2116173;28;19927;-47
2022/08/17 00:06:28;;;;;;;;;;;;;;;;;;2115764;28;19978;-46
2022/08/17 00:07:29;;;;;;;;;;;;;;;;;;2115905;28;19931;-46
2022/08/17 00:08:30;;;;;;;;;;;;;;;;;;2116056;28;19924;-47
2022/08/17 00:09:31;;;;;;;;;;;;;;;;;;2115791;28;19963;-46
2022/08/17 00:10:32;;;;;;;;;;;;;;;;;;2115914;28;19924;-46
2022/08/17 00:11:33;;;;;;;;;;;;;;;;;;2110950;28;19959;-46
2022/08/17 00:12:33;;;;;;;;;;;;;;;;;;2107408;28;20043;-46
2022/08/17 00:13:44;;;;;;;;;;;;;;;;;;2107596;28;19931;-46
2022/08/17 00:14:45;;;;;;;;;;;;;;;;;;2107475;28;19928;-47
2022/08/17 00:15:46;;;;;;;;;;;;;;;;;;2107424;28;20019;-46
2022/08/17 00:16:47;;;;;;;;;;;;;;;;;;2107194;28;19924;-46
2022/08/17 00:17:51;;;;;;;;;;;;;;;;;;2107557;28;19924;-46
2022/08/17 00:18:51;;;;;;;;;;;;;;;;;;2107326;28;20019;-46
2022/08/17 00:20:02;;;;;;;;;;;;;;;;;;2107594;28;19931;-46
2022/08/17 00:21:03;;;;;;;;;;;;;;;;;;2107381;28;19931;-45
2022/08/17 00:22:06;;;;;;;;;;;;;;;;;;2107324;28;20010;-45
2022/08/17 00:23:27;;;;;;;;;;;;;;;;;;2107460;28;19924;-48
2022/08/17 00:24:28;;;;;;;;;;;;;;;;;;2107572;28;20389;-46
2022/08/17 00:25:29;;;;;;;;;;;;;;;;;;2107608;28;20015;-45
2022/08/17 00:26:29;;;;;;;;;;;;;;;;;;2107302;28;19928;-45
2022/08/17 00:27:44;;;;;;;;;;;;;;;;;;2107497;28;20038;-44
2022/08/17 00:28:45;;;;;;;;;;;;;;;;;;2107485;28;20069;-45
2022/08/17 00:29:46;;;;;;;;;;;;;;;;;;2107315;28;19940;-44
2022/08/17 00:30:46;;;;;;;;;;;;;;;;;;2107222;28;19930;-45
2022/08/17 00:31:53;;;;;;;;;;;;;;;;;;2107445;28;20026;-44
2022/08/17 00:32:54;;;;;;;;;;;;;;;;;;2107284;28;20057;-45
2022/08/17 00:34:14;;;;;;;;;;;;;;;;;;2107226;28;19924;-46
2022/08/17 00:35:16;;;;;;;;;;;;;;;;;;2107757;28;20032;-45
2022/08/17 00:36:17;;;;;;;;;;;;;;;;;;2107361;28;20023;-44
2022/08/17 00:37:18;;;;;;;;;;;;;;;;;;2107246;28;20397;-47
2022/08/17 00:38:19;;;;;;;;;;;;;;;;;;2107435;28;19955;-45
2022/08/17 00:39:19;;;;;;;;;;;;;;;;;;2107346;28;19924;-44
2022/08/17 00:40:20;;;;;;;;;;;;;;;;;;2107203;28;19924;-45
2022/08/17 00:41:21;;;;;;;;;;;;;;;;;;2107360;28;19924;-45
2022/08/17 00:42:22;;;;;;;;;;;;;;;;;;2108898;28;20285;-45
2022/08/17 00:43:24;;;;;;;;;;;;;;;;;;2115612;28;19931;-44
2022/08/17 00:44:25;;;;;;;;;;;;;;;;;;2115754;28;19959;-45
2022/08/17 00:45:30;;;;;;;;;;;;;;;;;;2115634;28;20287;-45
2022/08/17 00:46:31;;;;;;;;;;;;;;;;;;2115649;28;19927;-45
2022/08/17 00:47:32;;;;;;;;;;;;;;;;;;2115667;28;19924;-44
2022/08/17 00:48:33;;;;;;;;;;;;;;;;;;2114762;28;19924;-45
2022/08/17 00:49:33;;;;;;;;;;;;;;;;;;2115975;28;20407;-45
2022/08/17 00:50:34;;;;;;;;;;;;;;;;;;2115695;28;19972;-46
2022/08/17 00:51:35;;;;;;;;;;;;;;;;;;2115585;28;19931;-45
2022/08/17 00:52:36;;;;;;;;;;;;;;;;;;2115609;28;19923;-46
2022/08/17 00:53:37;;;;;;;;;;;;;;;;;;2115695;28;19950;-47
2022/08/17 00:54:38;;;;;;;;;;;;;;;;;;2115607;28;20352;-46
2022/08/17 00:55:41;;;;;;;;;;;;;;;;;;2115793;28;19931;-44
2022/08/17 00:56:42;;;;;;;;;;;;;;;;;;2115423;28;19971;-47
2022/08/17 00:57:42;;;;;;;;;;;;;;;;;;2115743;28;20431;-45
2022/08/17 00:58:43;;;;;;;;;;;;;;;;;;2115623;28;19959;-45
2022/08/17 00:59:44;;;;;;;;;;;;;;;;;;2115613;28;19969;-47
2022/08/17 01:00:45;;;;;;;;;;;;;;;;;;2115601;28;20344;-44
2022/08/17 01:01:46;;;;;;;;;;;;;;;;;;2115378;28;19931;-45
2022/08/17 01:02:47;;;;;;;;;;;;;;;;;;2115663;28;19967;-45
2022/08/17 01:03:48;;;;;;;;;;;;;;;;;;2115579;28;19976;-44
2022/08/17 01:04:49;;;;;;;;;;;;;;;;;;2115448;28;20053;-47
2022/08/17 01:05:50;;;;;;;;;;;;;;;;;;2115478;28;20373;-45
2022/08/17 01:06:51;;;;;;;;;;;;;;;;;;2115517;28;20022;-44
2022/08/17 01:07:52;;;;;;;;;;;;;;;;;;2115579;28;19963;-44
2022/08/17 01:08:53;;;;;;;;;;;;;;;;;;2115495;28;19924;-45
2022/08/17 01:09:57;;;;;;;;;;;;;;;;;;2115659;28;19928;-44
2022/08/17 01:11:00;;;;;;;;;;;;;;;;;;2115431;28;20405;-45
2022/08/17 01:12:02;;;;;;;;;;;;;;;;;;2106983;28;20331;-44
2022/08/17 01:13:03;;;;;;;;;;;;;;;;;;2106982;28;19969;-45
2022/08/17 01:14:03;;;;;;;;;;;;;;;;;;2107121;28;19927;-44
2022/08/17 01:15:04;;;;;;;;;;;;;;;;;;2107139;28;20297;-44
2022/08/17 01:16:05;;;;;;;;;;;;;;;;;;2106835;28;19982;-45
2022/08/17 01:17:06;;;;;;;;;;;;;;;;;;2106904;28;20020;-45
2022/08/17 01:18:07;;;;;;;;;;;;;;;;;;2107140;28;19925;-45
2022/08/17 01:19:08;;;;;;;;;;;;;;;;;;2106994;28;20301;-47
2022/08/17 01:20:08;;;;;;;;;;;;;;;;;;2106868;28;19924;-47
2022/08/17 01:21:09;;;;;;;;;;;;;;;;;;2107115;28;20320;-45
2022/08/17 01:22:10;;;;;;;;;;;;;;;;;;2107024;28;20174;-48
2022/08/17 01:23:11;;;;;;;;;;;;;;;;;;2107050;28;19932;-44
2022/08/17 01:24:12;;;;;;;;;;;;;;;;;;2106966;28;19996;-45
2022/08/17 01:25:13;;;;;;;;;;;;;;;;;;2107107;28;19925;-45
2022/08/17 01:26:14;;;;;;;;;;;;;;;;;;2106992;28;19930;-45
2022/08/17 01:27:15;;;;;;;;;;;;;;;;;;2107026;28;20405;-45
2022/08/17 01:28:15;;;;;;;;;;;;;;;;;;2107010;28;20204;-46
2022/08/17 01:29:36;;;;;;;;;;;;;;;;;;2107042;28;19928;-46
2022/08/17 01:30:37;;;;;;;;;;;;;;;;;;2106913;28;19950;-47
2022/08/17 01:31:58;;;;;;;;;;;;;;;;;;2106935;28;19930;-46
2022/08/17 01:32:59;;;;;;;;;;;;;;;;;;2107009;28;20015;-46
2022/08/17 01:34:00;;;;;;;;;;;;;;;;;;2106968;28;20377;-48
2022/08/17 01:35:01;;;;;;;;;;;;;;;;;;2106794;28;19946;-46
2022/08/17 01:36:02;;;;;;;;;;;;;;;;;;2107066;28;20389;-46
2022/08/17 01:37:03;;;;;;;;;;;;;;;;;;2106874;28;19977;-45
2022/08/17 01:38:04;;;;;;;;;;;;;;;;;;2106784;28;19924;-46
2022/08/17 01:39:04;;;;;;;;;;;;;;;;;;2112367;28;20361;-45
2022/08/17 01:40:06;;;;;;;;;;;;;;;;;;2115422;28;19955;-46
2022/08/17 01:41:06;;;;;;;;;;;;;;;;;;2115304;28;19924;-48
2022/08/17 01:42:07;;;;;;;;;;;;;;;;;;2115547;28;19924;-46
2022/08/17 01:43:08;;;;;;;;;;;;;;;;;;2115230;28;20020;-46
2022/08/17 01:44:09;;;;;;;;;;;;;;;;;;2115249;28;20037;-46
2022/08/17 01:45:10;;;;;;;;;;;;;;;;;;2115319;28;19969;-46
2022/08/17 01:46:11;;;;;;;;;;;;;;;;;;2115162;28;19923;-46
2022/08/17 01:47:11;;;;;;;;;;;;;;;;;;2115307;28;19928;-46
2022/08/17 01:48:12;;;;;;;;;;;;;;;;;;2115419;28;19928;-46
2022/08/17 01:49:13;;;;;;;;;;;;;;;;;;2115245;28;20433;-46
2022/08/17 01:50:14;;;;;;;;;;;;;;;;;;2115533;28;19923;-46
2022/08/17 01:51:15;;;;;;;;;;;;;;;;;;2115154;28;20368;-45
2022/08/17 01:52:16;;;;;;;;;;;;;;;;;;2115372;28;19928;-45
2022/08/17 01:53:17;;;;;;;;;;;;;;;;;;2115172;28;19924;-45
2022/08/17 01:54:18;;;;;;;;;;;;;;;;;;2115335;28;19968;-47
2022/08/17 01:55:19;;;;;;;;;;;;;;;;;;2115310;28;20054;-46
2022/08/17 01:56:22;;;;;;;;;;;;;;;;;;2115025;28;19924;-45
2022/08/17 01:57:22;;;;;;;;;;;;;;;;;;2115376;28;20061;-47
2022/08/17 01:58:24;;;;;;;;;;;;;;;;;;2115134;28;19976;-46
2022/08/17 01:59:24;;;;;;;;;;;;;;;;;;2115175;28;20011;-45
2022/08/17 02:00:25;;;;;;;;;;;;;;;;;;2115155;28;20422;-45
2022/08/17 02:01:26;;;;;;;;;;;;;;;;;;2115204;28;19928;-45
2022/08/17 02:02:27;;;;;;;;;;;;;;;;;;2115156;28;19924;-45
2022/08/17 02:03:30;;;;;;;;;;;;;;;;;;2115206;28;19924;-45
2022/08/17 02:04:31;;;;;;;;;;;;;;;;;;2115222;28;19932;-46
2022/08/17 02:05:32;;;;;;;;;;;;;;;;;;2115323;28;20327;-46
2022/08/17 02:06:33;;;;;;;;;;;;;;;;;;2115047;28;19924;-46
2022/08/17 02:07:53;;;;;;;;;;;;;;;;;;2115199;28;19931;-45
2022/08/17 02:09:01;;;;;;;;;;;;;;;;;;2115023;28;19984;-46
2022/08/17 02:10:04;;;;;;;;;;;;;;;;;;2115193;28;19955;-47
2022/08/17 02:11:04;;;;;;;;;;;;;;;;;;2113993;28;20372;-47
2022/08/17 02:12:06;;;;;;;;;;;;;;;;;;2106618;28;19924;-47
2022/08/17 02:13:28;;;;;;;;;;;;;;;;;;2106626;28;19936;-47
2022/08/17 02:14:29;;;;;;;;;;;;;;;;;;2106775;28;20511;-46
2022/08/17 02:15:30;;;;;;;;;;;;;;;;;;2106841;28;19956;-47
2022/08/17 02:16:31;;;;;;;;;;;;;;;;;;2106578;28;20022;-47
2022/08/17 02:17:39;;;;;;;;;;;;;;;;;;2106691;28;19936;-46
2022/08/17 02:18:40;;;;;;;;;;;;;;;;;;2106580;28;19969;-46
2022/08/17 02:19:41;;;;;;;;;;;;;;;;;;2106703;28;19977;-46
2022/08/17 02:20:42;;;;;;;;;;;;;;;;;;2106545;28;20414;-46
2022/08/17 02:21:43;;;;;;;;;;;;;;;;;;2106611;28;19924;-47
2022/08/17 02:22:44;;;;;;;;;;;;;;;;;;2106563;28;19924;-46
2022/08/17 02:23:45;;;;;;;;;;;;;;;;;;2106531;28;19940;-48
2022/08/17 02:24:45;;;;;;;;;;;;;;;;;;2106702;28;20013;-47
2022/08/17 02:26:01;;;;;;;;;;;;;;;;;;2106629;28;19924;-46
2022/08/17 02:27:02;;;;;;;;;;;;;;;;;;2106455;28;19932;-45
2022/08/17 02:28:03;;;;;;;;;;;;;;;;;;2106566;28;19924;-46
2022/08/17 02:29:04;;;;;;;;;;;;;;;;;;2106505;28;19928;-47
2022/08/17 02:30:05;;;;;;;;;;;;;;;;;;2106569;28;20383;-47
2022/08/17 02:31:06;;;;;;;;;;;;;;;;;;2106578;28;19951;-47
2022/08/17 02:32:07;;;;;;;;;;;;;;;;;;2106507;28;20019;-46
2022/08/17 02:33:08;;;;;;;;;;;;;;;;;;2106627;28;20550;-46
2022/08/17 02:34:09;;;;;;;;;;;;;;;;;;2106437;28;20393;-47
2022/08/17 02:35:12;;;;;;;;;;;;;;;;;;2110576;28;19947;-47
2022/08/17 02:36:13;;;;;;;;;;;;;;;;;;2114569;28;19924;-46
2022/08/17 02:37:16;;;;;;;;;;;;;;;;;;2114894;28;20414;-47
2022/08/17 02:38:17;;;;;;;;;;;;;;;;;;2114957;28;19923;-46
2022/08/17 02:39:18;;;;;;;;;;;;;;;;;;2114945;28;20049;-45
2022/08/17 02:40:19;;;;;;;;;;;;;;;;;;2115071;28;20006;-45
2022/08/17 02:41:36;;;;;;;;;;;;;;;;;;2114991;28;19927;-46
2022/08/17 02:42:37;;;;;;;;;;;;;;;;;;2114941;28;20281;-46
2022/08/17 02:43:38;;;;;;;;;;;;;;;;;;2114965;28;19923;-45
2022/08/17 02:44:39;;;;;;;;;;;;;;;;;;2114855;28;19924;-45
2022/08/17 02:45:40;;;;;;;;;;;;;;;;;;2114730;28;19927;-47
2022/08/17 02:46:41;;;;;;;;;;;;;;;;;;2114790;28;19931;-45
2022/08/17 02:47:42;;;;;;;;;;;;;;;;;;2114917;28;19946;-44
2022/08/17 02:48:43;;;;;;;;;;;;;;;;;;2114821;28;20443;-45
2022/08/17 02:49:44;;;;;;;;;;;;;;;;;;2115078;28;20037;-44
2022/08/17 02:50:54;;;;;;;;;;;;;;;;;;2114914;28;19993;-44
2022/08/17 02:51:55;;;;;;;;;;;;;;;;;;2114961;28;19924;-46
2022/08/17 02:52:56;;;;;;;;;;;;;;;;;;2114918;28;19981;-44
2022/08/17 02:54:03;;;;;;;;;;;;;;;;;;2114854;28;19932;-45
2022/08/17 02:55:24;;;;;;;;;;;;;;;;;;2114952;28;19923;-45
2022/08/17 02:56:25;;;;;;;;;;;;;;;;;;2115080;28;20026;-45
2022/08/17 02:57:26;;;;;;;;;;;;;;;;;;2115192;28;19955;-46
2022/08/17 02:58:27;;;;;;;;;;;;;;;;;;2114831;28;19924;-45
2022/08/17 02:59:35;;;;;;;;;;;;;;;;;;2114994;28;20018;-45
2022/08/17 03:00:36;;;;;;;;;;;;;;;;;;2114713;28;19928;-46
2022/08/17 03:01:36;;;;;;;;;;;;;;;;;;2114787;28;19969;-46
2022/08/17 03:02:37;;;;;;;;;;;;;;;;;;2115055;28;19993;-45
2022/08/17 03:03:38;;;;;;;;;;;;;;;;;;2114912;28;19924;-45
2022/08/17 03:04:39;;;;;;;;;;;;;;;;;;2114830;28;19953;-46
2022/08/17 03:05:40;;;;;;;;;;;;;;;;;;2114741;28;19924;-46
2022/08/17 03:06:41;;;;;;;;;;;;;;;;;;2115188;28;19923;-46
2022/08/17 03:07:42;;;;;;;;;;;;;;;;;;2114662;28;20458;-47
2022/08/17 03:08:43;;;;;;;;;;;;;;;;;;2114750;28;19924;-45
2022/08/17 03:09:44;;;;;;;;;;;;;;;;;;2114585;28;19943;-45
2022/08/17 03:10:45;;;;;;;;;;;;;;;;;;2114976;28;20368;-45
2022/08/17 03:11:46;;;;;;;;;;;;;;;;;;2107334;28;20022;-45
2022/08/17 03:12:47;;;;;;;;;;;;;;;;;;2106237;28;19928;-46
2022/08/17 03:13:47;;;;;;;;;;;;;;;;;;2106200;28;20365;-44
2022/08/17 03:14:48;;;;;;;;;;;;;;;;;;2106257;28;19931;-45
2022/08/17 03:15:49;;;;;;;;;;;;;;;;;;2106193;28;20048;-47
2022/08/17 03:16:50;;;;;;;;;;;;;;;;;;2106101;28;19968;-44
2022/08/17 03:17:51;;;;;;;;;;;;;;;;;;2106605;28;19924;-46
2022/08/17 03:18:53;;;;;;;;;;;;;;;;;;2106128;28;20385;-45
2022/08/17 03:19:54;;;;;;;;;;;;;;;;;;2106326;28;20011;-45
2022/08/17 03:20:55;;;;;;;;;;;;;;;;;;2106301;28;19924;-46
2022/08/17 03:21:56;;;;;;;;;;;;;;;;;;2106209;28;20007;-44
2022/08/17 03:22:57;;;;;;;;;;;;;;;;;;2106330;28;19960;-45
2022/08/17 03:24:03;;;;;;;;;;;;;;;;;;2106400;28;19932;-45
2022/08/17 03:25:09;;;;;;;;;;;;;;;;;;2106228;28;20481;-45
2022/08/17 03:26:11;;;;;;;;;;;;;;;;;;2106383;28;19924;-44
2022/08/17 03:27:15;;;;;;;;;;;;;;;;;;2106524;28;19932;-44
2022/08/17 03:28:16;;;;;;;;;;;;;;;;;;2106180;28;19997;-45
2022/08/17 03:29:18;;;;;;;;;;;;;;;;;;2106525;28;19959;-45
2022/08/17 03:30:21;;;;;;;;;;;;;;;;;;2106229;28;20011;-45
2022/08/17 03:31:22;;;;;;;;;;;;;;;;;;2109861;28;20014;-44
2022/08/17 03:32:23;;;;;;;;;;;;;;;;;;2114730;28;19924;-44
2022/08/17 03:33:24;;;;;;;;;;;;;;;;;;2106496;28;20065;-45
2022/08/17 03:34:24;;;;;;;;;;;;;;;;;;2106086;28;20238;-45
2022/08/17 03:35:25;;;;;;;;;;;;;;;;;;2106339;28;19931;-45
2022/08/17 03:36:26;;;;;;;;;;;;;;;;;;2106134;28;20011;-46
2022/08/17 03:37:27;;;;;;;;;;;;;;;;;;2106220;28;20404;-45
2022/08/17 03:38:28;;;;;;;;;;;;;;;;;;2106718;28;19982;-44
2022/08/17 03:39:29;;;;;;;;;;;;;;;;;;2106691;28;20422;-46
2022/08/17 03:40:30;;;;;;;;;;;;;;;;;;2106170;28;19928;-46
2022/08/17 03:41:35;;;;;;;;;;;;;;;;;;2106548;28;19931;-46
2022/08/17 03:42:36;;;;;;;;;;;;;;;;;;2106181;28;20018;-45
2022/08/17 03:43:37;;;;;;;;;;;;;;;;;;2105942;28;20006;-45
2022/08/17 03:44:38;;;;;;;;;;;;;;;;;;2106403;28;20373;-46
2022/08/17 03:57:39;;;;;;;;;;;;;;;;;;2083015;28;19945;-45
2022/08/17 03:58:40;;;;;;;;;;;;;;;;;;2106098;28;19974;-44
2022/08/17 03:59:41;;;;;;;;;;;;;;;;;;2106034;28;20071;-44
2022/08/17 04:00:45;;;;;;;;;;;;;;;;;;2106171;28;20015;-46
2022/08/17 04:01:46;;;;;;;;;;;;;;;;;;2105894;28;20415;-46
2022/08/17 04:02:47;;;;;;;;;;;;;;;;;;2105962;28;20289;-45
2022/08/17 04:03:48;;;;;;;;;;;;;;;;;;2106019;28;20018;-45
2022/08/17 04:04:49;;;;;;;;;;;;;;;;;;2106090;28;19952;-45
2022/08/17 04:05:50;;;;;;;;;;;;;;;;;;2106225;28;20380;-45
2022/08/17 04:06:51;;;;;;;;;;;;;;;;;;2106098;28;19977;-46
2022/08/17 04:07:52;;;;;;;;;;;;;;;;;;2105999;28;20022;-45
2022/08/17 04:08:53;;;;;;;;;;;;;;;;;;2106011;28;20016;-45
2022/08/17 04:09:53;;;;;;;;;;;;;;;;;;2106090;28;19924;-46
2022/08/17 04:10:54;;;;;;;;;;;;;;;;;;2105907;28;19946;-45
2022/08/17 04:11:56;;;;;;;;;;;;;;;;;;2114054;28;20261;-44
2022/08/17 04:12:57;;;;;;;;;;;;;;;;;;2114363;28;20002;-48
2022/08/17 04:15:17;;;;;;;;;;;;;;;;;;2114321;28;20377;-46
2022/08/17 04:16:18;;;;;;;;;;;;;;;;;;2114331;28;20015;-45
2022/08/17 04:17:19;;;;;;;;;;;;;;;;;;2114392;28;19932;-47
2022/08/17 04:18:19;;;;;;;;;;;;;;;;;;2114400;28;19989;-45
2022/08/17 04:19:20;;;;;;;;;;;;;;;;;;2114228;28;19970;-45
2022/08/17 04:20:21;;;;;;;;;;;;;;;;;;2115099;28;19924;-46
2022/08/17 04:21:22;;;;;;;;;;;;;;;;;;2114573;28;19961;-46
2022/08/17 04:22:23;;;;;;;;;;;;;;;;;;2114225;28;19945;-46
2022/08/17 04:23:33;;;;;;;;;;;;;;;;;;2115016;28;20323;-48
2022/08/17 04:24:35;;;;;;;;;;;;;;;;;;2115980;28;20048;-45
2022/08/17 04:25:36;;;;;;;;;;;;;;;;;;2115676;28;19989;-45
2022/08/17 04:26:37;;;;;;;;;;;;;;;;;;2116131;28;19931;-48
2022/08/17 04:27:54;;;;;;;;;;;;;;;;;;2115991;28;19924;-48
2022/08/17 04:28:57;;;;;;;;;;;;;;;;;;2115626;28;19931;-45
2022/08/17 04:29:58;;;;;;;;;;;;;;;;;;2116095;28;19928;-45
2022/08/17 04:30:59;;;;;;;;;;;;;;;;;;2115969;28;19931;-44
2022/08/17 04:32:00;;;;;;;;;;;;;;;;;;2116071;28;20056;-45
2022/08/17 04:33:01;;;;;;;;;;;;;;;;;;2115764;28;20349;-45
2022/08/17 04:34:06;;;;;;;;;;;;;;;;;;2115779;28;20380;-46
2022/08/17 04:35:07;;;;;;;;;;;;;;;;;;2115640;28;19924;-46
2022/08/17 04:36:08;;;;;;;;;;;;;;;;;;2115954;28;19959;-46
2022/08/17 04:37:09;;;;;;;;;;;;;;;;;;2115824;28;19954;-45
2022/08/17 04:38:10;;;;;;;;;;;;;;;;;;2115661;28;20278;-45
2022/08/17 04:39:11;;;;;;;;;;;;;;;;;;2115897;28;20026;-45
2022/08/17 04:42:51;;;;;;;;;;;;;;;;;;2116031;28;19930;-45
2022/08/17 04:43:54;;;;;;;;;;;;;;;;;;2115715;28;19931;-46
2022/08/17 04:44:55;;;;;;;;;;;;;;;;;;2115660;28;19963;-45
2022/08/17 04:45:56;;;;;;;;;;;;;;;;;;2115779;28;19928;-46
2022/08/17 04:46:57;;;;;;;;;;;;;;;;;;2115594;28;19928;-45
2022/08/17 04:47:58;;;;;;;;;;;;;;;;;;2115628;28;19924;-45
2022/08/17 04:48:59;;;;;;;;;;;;;;;;;;2115622;28;19930;-45
2022/08/17 04:50:02;;;;;;;;;;;;;;;;;;2115877;28;19984;-46
2022/08/17 04:51:03;;;;;;;;;;;;;;;;;;2115648;28;19930;-46
2022/08/17 04:52:04;;;;;;;;;;;;;;;;;;2115878;28;20289;-46
2022/08/17 04:53:05;;;;;;;;;;;;;;;;;;2115623;28;19973;-47
2022/08/17 04:54:06;;;;;;;;;;;;;;;;;;2116026;28;20324;-46
2022/08/17 04:55:07;;;;;;;;;;;;;;;;;;2115639;28;20006;-47
2022/08/17 04:56:08;;;;;;;;;;;;;;;;;;2115339;28;20372;-46
2022/08/17 04:57:12;;;;;;;;;;;;;;;;;;2115469;28;19923;-46
2022/08/17 04:58:13;;;;;;;;;;;;;;;;;;2115560;28;19978;-46
2022/08/17 04:59:14;;;;;;;;;;;;;;;;;;2115536;28;19931;-46
2022/08/17 05:00:15;;;;;;;;;;;;;;;;;;2116023;28;19946;-45
2022/08/17 05:01:16;;;;;;;;;;;;;;;;;;2115667;28;19924;-45
2022/08/17 05:02:17;;;;;;;;;;;;;;;;;;2115582;28;19963;-45
2022/08/17 05:03:17;;;;;;;;;;;;;;;;;;2115659;28;20011;-46
2022/08/17 05:04:18;;;;;;;;;;;;;;;;;;2115552;28;20150;-45
2022/08/17 05:05:21;;;;;;;;;;;;;;;;;;2115539;28;20339;-46
2022/08/17 05:06:22;;;;;;;;;;;;;;;;;;2115646;28;19977;-45
2022/08/17 05:07:23;;;;;;;;;;;;;;;;;;2115618;28;20014;-47
2022/08/17 05:08:27;;;;;;;;;;;;;;;;;;2116040;28;20006;-46
2022/08/17 05:09:28;;;;;;;;;;;;;;;;;;2115532;28;19996;-46
2022/08/17 05:10:29;;;;;;;;;;;;;;;;;;2115683;28;20331;-47
2022/08/17 05:11:30;;;;;;;;;;;;;;;;;;2111075;28;19930;-46
2022/08/17 05:12:31;;;;;;;;;;;;;;;;;;2107393;28;20015;-47
2022/08/17 05:13:32;;;;;;;;;;;;;;;;;;2107254;28;20380;-47
2022/08/17 05:14:33;;;;;;;;;;;;;;;;;;2106959;28;20334;-49
2022/08/17 05:15:34;;;;;;;;;;;;;;;;;;2107348;28;19931;-48
2022/08/17 05:16:36;;;;;;;;;;;;;;;;;;2106973;28;19925;-48
2022/08/17 05:17:37;;;;;;;;;;;;;;;;;;2107394;28;19931;-45
2022/08/17 05:18:38;;;;;;;;;;;;;;;;;;2107254;28;20381;-46
2022/08/17 05:19:39;;;;;;;;;;;;;;;;;;2106940;28;19924;-46
2022/08/17 05:20:40;;;;;;;;;;;;;;;;;;2107131;28;19931;-45
2022/08/17 05:21:41;;;;;;;;;;;;;;;;;;2107117;28;19924;-45
2022/08/17 05:22:43;;;;;;;;;;;;;;;;;;2107149;28;20289;-46
2022/08/17 05:23:44;;;;;;;;;;;;;;;;;;2109509;28;19977;-47
2022/08/17 05:24:44;;;;;;;;;;;;;;;;;;2115444;28;20318;-46
2022/08/17 05:25:54;;;;;;;;;;;;;;;;;;2108132;28;19924;-46
2022/08/17 05:26:55;;;;;;;;;;;;;;;;;;2107094;28;20373;-44
2022/08/17 05:27:56;;;;;;;;;;;;;;;;;;2107370;28;19995;-44
2022/08/17 05:28:57;;;;;;;;;;;;;;;;;;2106971;28;19928;-45
2022/08/17 05:29:59;;;;;;;;;;;;;;;;;;2107091;28;19925;-45
2022/08/17 05:31:01;;;;;;;;;;;;;;;;;;2107397;28;19931;-46
2022/08/17 05:32:01;;;;;;;;;;;;;;;;;;2106831;28;19924;-44
2022/08/17 05:33:02;;;;;;;;;;;;;;;;;;2107211;28;19924;-47
2022/08/17 05:34:03;;;;;;;;;;;;;;;;;;2106773;28;19924;-46
2022/08/17 05:35:04;;;;;;;;;;;;;;;;;;2107015;28;19924;-46
2022/08/17 05:36:05;;;;;;;;;;;;;;;;;;2106946;28;19949;-47
2022/08/17 05:37:06;;;;;;;;;;;;;;;;;;2106976;28;19954;-47
2022/08/17 05:38:07;;;;;;;;;;;;;;;;;;2107169;28;20410;-45
2022/08/17 05:39:08;;;;;;;;;;;;;;;;;;2107058;28;19969;-45
2022/08/17 05:40:09;;;;;;;;;;;;;;;;;;2106902;28;19947;-45
2022/08/17 05:41:10;;;;;;;;;;;;;;;;;;2107192;28;19924;-47
2022/08/17 05:42:11;;;;;;;;;;;;;;;;;;2106896;28;20376;-46
2022/08/17 05:43:12;;;;;;;;;;;;;;;;;;2107147;28;19931;-45
2022/08/17 05:44:12;;;;;;;;;;;;;;;;;;2107126;28;19924;-46
2022/08/17 05:45:14;;;;;;;;;;;;;;;;;;2106807;28;20362;-48
2022/08/17 05:46:16;;;;;;;;;;;;;;;;;;2107031;28;20381;-45
2022/08/17 05:47:16;;;;;;;;;;;;;;;;;;2106991;28;20306;-47
2022/08/17 05:48:17;;;;;;;;;;;;;;;;;;2107226;28;19930;-46
2022/08/17 05:49:18;;;;;;;;;;;;;;;;;;2106917;28;20022;-47
2022/08/17 05:50:19;;;;;;;;;;;;;;;;;;2106782;28;19930;-47
2022/08/17 05:51:24;;;;;;;;;;;;;;;;;;2107103;28;19924;-46
2022/08/17 05:52:25;;;;;;;;;;;;;;;;;;2107292;28;19970;-47
2022/08/17 05:53:26;;;;;;;;;;;;;;;;;;2107197;28;20506;-47
2022/08/17 05:54:27;;;;;;;;;;;;;;;;;;2106931;28;19968;-46
2022/08/17 05:55:28;;;;;;;;;;;;;;;;;;2106844;28;19970;-47
2022/08/17 05:56:29;;;;;;;;;;;;;;;;;;2107363;28;20396;-46
2022/08/17 05:57:30;;;;;;;;;;;;;;;;;;2106751;28;19932;-46
2022/08/17 05:58:31;;;;;;;;;;;;;;;;;;2107145;28;19927;-49
2022/08/17 05:59:32;;;;;;;;;;;;;;;;;;2107756;28;20420;-48
2022/08/17 06:00:33;;;;;;;;;;;;;;;;;;2106746;28;19924;-46
2022/08/17 06:01:34;;;;;;;;;;;;;;;;;;2107440;28;20030;-46
2022/08/17 06:02:35;;;;;;;;;;;;;;;;;;2106923;28;19924;-46
2022/08/17 06:03:36;;;;;;;;;;;;;;;;;;2106699;28;19964;-47
2022/08/17 06:04:37;;;;;;;;;;;;;;;;;;2106672;28;19928;-47
2022/08/17 06:05:38;;;;;;;;;;;;;;;;;;2106687;28;19928;-45
2022/08/17 06:06:39;;;;;;;;;;;;;;;;;;2107054;28;20444;-45
2022/08/17 06:07:40;;;;;;;;;;;;;;;;;;2106673;28;20007;-47
2022/08/17 06:08:41;;;;;;;;;;;;;;;;;;2106886;28;19974;-47
2022/08/17 06:09:41;;;;;;;;;;;;;;;;;;2106875;28;20428;-45
2022/08/17 06:10:42;;;;;;;;;;;;;;;;;;2107415;28;19966;-47
2022/08/17 06:11:43;;;;;;;;;;;;;;;;;;2113210;28;19931;-49
2022/08/17 06:12:44;;;;;;;;;;;;;;;;;;2115257;28;19930;-46
2022/08/17 06:13:45;;;;;;;;;;;;;;;;;;2115563;28;20351;-48
2022/08/17 06:14:46;;;;;;;;;;;;;;;;;;2115494;28;19928;-48
2022/08/17 06:15:46;;;;;;;;;;;;;;;;;;2115125;28;19939;-48
2022/08/17 06:16:47;;;;;;;;;;;;;;;;;;2114871;28;20261;-46
2022/08/17 06:17:48;;;;;;;;;;;;;;;;;;2115109;28;19946;-47
2022/08/17 06:18:49;;;;;;;;;;;;;;;;;;2114962;28;19967;-46
2022/08/17 06:19:50;;;;;;;;;;;;;;;;;;2115094;28;19992;-48
2022/08/17 06:20:51;;;;;;;;;;;;;;;;;;2115120;28;19924;-45
2022/08/17 06:21:52;;;;;;;;;;;;;;;;;;2115286;28;20084;-51
2022/08/17 06:22:53;;;;;;;;;;;;;;;;;;2116039;28;20372;-46
2022/08/17 06:23:53;;;;;;;;;;;;;;;;;;2115451;28;19951;-48
2022/08/17 06:24:55;;;;;;;;;;;;;;;;;;2114951;28;20417;-50
2022/08/17 06:25:56;;;;;;;;;;;;;;;;;;2115442;28;19923;-47
2022/08/17 06:26:57;;;;;;;;;;;;;;;;;;2115329;28;19932;-47
2022/08/17 06:27:58;;;;;;;;;;;;;;;;;;2115357;28;20018;-48
2022/08/17 06:28:59;;;;;;;;;;;;;;;;;;2114988;28;19930;-48
2022/08/17 06:30:00;;;;;;;;;;;;;;;;;;2114942;28;19951;-50
2022/08/17 06:31:01;;;;;;;;;;;;;;;;;;2115159;28;19955;-51
2022/08/17 06:32:02;;;;;;;;;;;;;;;;;;2115108;28;20283;-49
2022/08/17 06:33:04;;;;;;;;;;;;;;;;;;2115036;28;20372;-50
2022/08/17 06:34:05;;;;;;;;;;;;;;;;;;2115069;28;20076;-48
2022/08/17 06:35:06;;;;;;;;;;;;;;;;;;2114996;28;20001;-50
2022/08/17 06:36:07;;;;;;;;;;;;;;;;;;2114978;28;19955;-52
2022/08/17 06:37:09;;;;;;;;;;;;;;;;;;2114784;28;20381;-49
2022/08/17 06:38:10;;;;;;;;;;;;;;;;;;2114947;28;19923;-53
2022/08/17 06:39:17;;;;;;;;;;;;;;;;;;2115027;28;19946;-50
2022/08/17 06:40:18;;;;;;;;;;;;;;;;;;2115046;28;19923;-49
2022/08/17 06:41:19;;;;;;;;;;;;;;;;;;2114792;28;19970;-48
2022/08/17 06:42:20;;;;;;;;;;;;;;;;;;2114898;28;19923;-48
2022/08/17 06:43:41;;;;;;;;;;;;;;;;;;2114789;28;19927;-51
2022/08/17 06:44:46;;;;;;;;;;;;;;;;;;2114936;28;19950;-50
2022/08/17 06:45:51;;;;;;;;;;;;;;;;;;2114419;28;19924;-49
2022/08/17 06:46:52;;;;;;;;;;;;;;;;;;2114684;28;19923;-48
2022/08/17 06:47:53;;;;;;;;;;;;;;;;;;2114894;28;20015;-52
2022/08/17 06:48:54;;;;;;;;;;;;;;;;;;2115001;28;19950;-49
2022/08/17 06:49:56;;;;;;;;;;;;;;;;;;2114845;28;20014;-50
2022/08/17 06:50:58;;;;;;;;;;;;;;;;;;2114870;28;19957;-50
2022/08/17 06:51:59;;;;;;;;;;;;;;;;;;2115189;28;20015;-49
2022/08/17 06:53:00;;;;;;;;;;;;;;;;;;2114844;28;20398;-49
2022/08/17 06:54:01;;;;;;;;;;;;;;;;;;2114969;28;19924;-50
2022/08/17 06:55:02;;;;;;;;;;;;;;;;;;2114793;28;19977;-50
2022/08/17 06:56:03;;;;;;;;;;;;;;;;;;2115122;28;20011;-45
2022/08/17 06:57:04;;;;;;;;;;;;;;;;;;2114879;28;19931;-49
2022/08/17 06:58:06;;;;;;;;;;;;;;;;;;2115124;28;20006;-51
2022/08/17 06:59:17;;;;;;;;;;;;;;;;;;2114905;28;20026;-46
2022/08/17 07:00:18;;;;;;;;;;;;;;;;;;2115196;28;20018;-50
2022/08/17 07:01:20;;;;;;;;;;;;;;;;;;2114648;28;19985;-46
2022/08/17 07:02:21;;;;;;;;;;;;;;;;;;2114973;28;20014;-46
2022/08/17 07:03:29;;;;;;;;;;;;;;;;;;2114863;28;19930;-45
2022/08/17 07:04:30;;;;;;;;;;;;;;;;;;2114673;28;19973;-46
2022/08/17 07:05:31;;;;;;;;;;;;;;;;;;2114746;28;19924;-46
2022/08/17 07:06:31;;;;;;;;;;;;;;;;;;2114678;28;19934;-45
2022/08/17 07:08:52;;;;;;;;;;;;;;;;;;2114976;28;20384;-45
2022/08/17 07:09:53;;;;;;;;;;;;;;;;;;2115167;28;20345;-46
2022/08/17 07:10:54;;;;;;;;;;;;;;;;;;2114722;28;19931;-46
2022/08/17 07:11:54;;;;;;;;;;;;;;;;;;2106732;28;20019;-46
2022/08/17 07:12:55;;;;;;;;;;;;;;;;;;2106424;28;20195;-45
2022/08/17 07:13:57;;;;;;;;;;;;;;;;;;2106308;28;20023;-46
2022/08/17 07:14:58;;;;;;;;;;;;;;;;;;2106598;28;19962;-46
2022/08/17 07:15:59;;;;;;;;;;;;;;;;;;2106895;28;20039;-46
2022/08/17 07:16:59;;;;;;;;;;;;;;;;;;2114659;28;20026;-46
2022/08/17 07:18:02;;;;;;;;;;;;;;;;;;2114541;28;19959;-47
2022/08/17 07:19:03;;;;;;;;;;;;;;;;;;2114832;28;19924;-47
2022/08/17 07:20:04;;;;;;;;;;;;;;;;;;2115027;28;20300;-46